ESNBA EETN-EEKU
Flight info
| Callsign | ESNBA |
|---|---|
| Flight time | 0h 24m |
| Altitude | 20000 |
| Route | ORTAX DCT XANON |
| Aircraft | SF50/L-SDGRWY/L |
Departure
| Time | 2026-05-04 13:15 |
|---|---|
| Airport | Lennart Meri Tallinn Airport (EETN) |
Arrival
| Time | 2026-05-04 13:39 |
|---|---|
| Airport | Kihnu Airfield (EEKU) |
| Time | Latitude | Longitude | Altitude | Speed | Heading |
|---|---|---|---|---|---|
| 2026-05-04 13:00 | 59.41572 | 24.82934 | 156 ft | 0 kts | 181° |
| 2026-05-04 13:11 | 59.41560 | 24.82939 | 156 ft | 0 kts | 115° |
| 2026-05-04 13:11 | 59.41557 | 24.82998 | 156 ft | 9 kts | 92° |
| 2026-05-04 13:11 | 59.41520 | 24.83091 | 156 ft | 13 kts | 175° |
| 2026-05-04 13:11 | 59.41500 | 24.83301 | 156 ft | 21 kts | 90° |
| 2026-05-04 13:12 | 59.41499 | 24.83656 | 156 ft | 31 kts | 91° |
| 2026-05-04 13:12 | 59.41495 | 24.84137 | 156 ft | 40 kts | 91° |
| 2026-05-04 13:12 | 59.41498 | 24.84545 | 156 ft | 20 kts | 90° |
| 2026-05-04 13:12 | 59.41497 | 24.84734 | 156 ft | 22 kts | 89° |
| 2026-05-04 13:13 | 59.41477 | 24.84991 | 156 ft | 16 kts | 142° |
| 2026-05-04 13:13 | 59.41440 | 24.85013 | 156 ft | 8 kts | 178° |
| 2026-05-04 13:13 | 59.41433 | 24.85012 | 156 ft | 7 kts | 183° |
| 2026-05-04 13:13 | 59.41356 | 24.85008 | 156 ft | 15 kts | 183° |
| 2026-05-04 13:14 | 59.41321 | 24.84821 | 156 ft | 20 kts | 271° |
| 2026-05-04 13:14 | 59.41321 | 24.84730 | 155 ft | 6 kts | 268° |
| 2026-05-04 13:14 | 59.41322 | 24.84202 | 155 ft | 79 kts | 270° |
| 2026-05-04 13:14 | 59.41328 | 24.82757 | 438 ft | 114 kts | 273° |
| 2026-05-04 13:15 | 59.41362 | 24.81076 | 967 ft | 130 kts | 272° |
| 2026-05-04 13:15 | 59.41353 | 24.79266 | 1418 ft | 136 kts | 262° |
| 2026-05-04 13:15 | 59.40977 | 24.77584 | 1799 ft | 139 kts | 231° |
| 2026-05-04 13:15 | 59.40164 | 24.76535 | 2189 ft | 144 kts | 206° |
| 2026-05-04 13:16 | 59.39214 | 24.75867 | 2586 ft | 146 kts | 206° |
| 2026-05-04 13:16 | 59.38234 | 24.75200 | 2951 ft | 157 kts | 206° |
| 2026-05-04 13:16 | 59.37190 | 24.74239 | 3315 ft | 172 kts | 214° |
| 2026-05-04 13:16 | 59.36068 | 24.73150 | 3714 ft | 188 kts | 207° |
| 2026-05-04 13:17 | 59.34809 | 24.72243 | 4108 ft | 197 kts | 205° |
| 2026-05-04 13:17 | 59.33515 | 24.71225 | 4501 ft | 203 kts | 208° |
| 2026-05-04 13:17 | 59.32206 | 24.70121 | 4881 ft | 207 kts | 208° |
| 2026-05-04 13:17 | 59.30864 | 24.69023 | 5260 ft | 210 kts | 208° |
| 2026-05-04 13:18 | 59.29517 | 24.67935 | 5640 ft | 209 kts | 208° |
| 2026-05-04 13:18 | 59.28178 | 24.66851 | 6025 ft | 208 kts | 209° |
| 2026-05-04 13:18 | 59.26843 | 24.65767 | 6388 ft | 208 kts | 209° |
| 2026-05-04 13:18 | 59.25505 | 24.64680 | 6752 ft | 208 kts | 209° |
| 2026-05-04 13:19 | 59.24171 | 24.63601 | 7123 ft | 207 kts | 209° |
| 2026-05-04 13:19 | 59.22843 | 24.62524 | 7495 ft | 206 kts | 209° |
| 2026-05-04 13:19 | 59.21521 | 24.61455 | 7871 ft | 205 kts | 209° |
| 2026-05-04 13:19 | 59.20222 | 24.60405 | 8247 ft | 205 kts | 209° |
| 2026-05-04 13:20 | 59.18889 | 24.59330 | 8671 ft | 204 kts | 209° |
| 2026-05-04 13:20 | 59.17599 | 24.58294 | 9112 ft | 203 kts | 210° |
| 2026-05-04 13:20 | 59.16287 | 24.57234 | 9557 ft | 203 kts | 210° |
| 2026-05-04 13:20 | 59.14983 | 24.56183 | 9964 ft | 202 kts | 210° |
| 2026-05-04 13:21 | 59.13686 | 24.55139 | 10373 ft | 202 kts | 210° |
| 2026-05-04 13:21 | 59.12388 | 24.54097 | 10783 ft | 201 kts | 210° |
| 2026-05-04 13:21 | 59.11100 | 24.53060 | 11211 ft | 200 kts | 210° |
| 2026-05-04 13:21 | 59.09816 | 24.52026 | 11640 ft | 200 kts | 210° |
| 2026-05-04 13:22 | 59.08532 | 24.50998 | 12072 ft | 199 kts | 210° |
| 2026-05-04 13:22 | 59.07253 | 24.49975 | 12512 ft | 198 kts | 210° |
| 2026-05-04 13:22 | 59.05985 | 24.48964 | 12956 ft | 197 kts | 210° |
| 2026-05-04 13:22 | 59.04733 | 24.47958 | 13403 ft | 197 kts | 210° |
| 2026-05-04 13:23 | 59.03461 | 24.46944 | 13815 ft | 197 kts | 210° |
| 2026-05-04 13:23 | 59.02193 | 24.45931 | 14221 ft | 197 kts | 210° |
| 2026-05-04 13:23 | 59.00927 | 24.44921 | 14607 ft | 196 kts | 210° |
| 2026-05-04 13:23 | 58.99669 | 24.43917 | 15024 ft | 195 kts | 210° |
| 2026-05-04 13:24 | 58.98419 | 24.42921 | 15448 ft | 193 kts | 210° |
| 2026-05-04 13:24 | 58.97158 | 24.41910 | 15673 ft | 203 kts | 210° |
| 2026-05-04 13:24 | 58.95803 | 24.40819 | 15681 ft | 217 kts | 210° |
| 2026-05-04 13:25 | 58.92913 | 24.38535 | 15688 ft | 232 kts | 209° |
| 2026-05-04 13:25 | 58.91402 | 24.37340 | 15688 ft | 237 kts | 209° |
| 2026-05-04 13:25 | 58.89858 | 24.36118 | 15694 ft | 242 kts | 209° |
| 2026-05-04 13:25 | 58.88289 | 24.34875 | 15692 ft | 245 kts | 209° |
| 2026-05-04 13:26 | 58.86701 | 24.33621 | 15691 ft | 249 kts | 209° |
| 2026-05-04 13:26 | 58.85083 | 24.32370 | 15693 ft | 254 kts | 206° |
| 2026-05-04 13:26 | 58.83334 | 24.31501 | 15694 ft | 263 kts | 200° |
| 2026-05-04 13:26 | 58.81536 | 24.30681 | 15689 ft | 267 kts | 201° |
| 2026-05-04 13:27 | 58.79715 | 24.29845 | 15686 ft | 270 kts | 201° |
| 2026-05-04 13:27 | 58.77894 | 24.28972 | 15688 ft | 270 kts | 201° |
| 2026-05-04 13:27 | 58.76066 | 24.28118 | 15688 ft | 270 kts | 200° |
| 2026-05-04 13:27 | 58.74233 | 24.27276 | 15669 ft | 271 kts | 200° |
| 2026-05-04 13:28 | 58.72397 | 24.26429 | 15686 ft | 272 kts | 200° |
| 2026-05-04 13:28 | 58.70545 | 24.25577 | 15678 ft | 274 kts | 200° |
| 2026-05-04 13:28 | 58.68713 | 24.24729 | 15681 ft | 273 kts | 200° |
| 2026-05-04 13:28 | 58.66867 | 24.23872 | 15678 ft | 272 kts | 200° |
| 2026-05-04 13:29 | 58.65025 | 24.23022 | 15687 ft | 272 kts | 200° |
| 2026-05-04 13:29 | 58.63185 | 24.22179 | 15683 ft | 271 kts | 200° |
| 2026-05-04 13:29 | 58.61349 | 24.21332 | 15687 ft | 271 kts | 201° |
| 2026-05-04 13:29 | 58.59518 | 24.20491 | 15681 ft | 271 kts | 200° |
| 2026-05-04 13:30 | 58.57684 | 24.19653 | 15688 ft | 271 kts | 200° |
| 2026-05-04 13:30 | 58.55852 | 24.18811 | 15692 ft | 270 kts | 200° |
| 2026-05-04 13:30 | 58.54016 | 24.17969 | 15602 ft | 273 kts | 200° |
| 2026-05-04 13:30 | 58.52179 | 24.17128 | 15439 ft | 276 kts | 200° |
| 2026-05-04 13:31 | 58.50306 | 24.16276 | 15166 ft | 277 kts | 200° |
| 2026-05-04 13:31 | 58.48439 | 24.15426 | 14748 ft | 274 kts | 200° |
| 2026-05-04 13:31 | 58.46586 | 24.14606 | 14247 ft | 273 kts | 198° |
| 2026-05-04 13:31 | 58.44734 | 24.14564 | 13737 ft | 249 kts | 183° |
| 2026-05-04 13:32 | 58.43147 | 24.14878 | 13260 ft | 213 kts | 186° |
| 2026-05-04 13:32 | 58.41746 | 24.15089 | 12774 ft | 193 kts | 187° |
| 2026-05-04 13:32 | 58.40448 | 24.15294 | 12153 ft | 185 kts | 187° |
| 2026-05-04 13:32 | 58.39207 | 24.15505 | 11179 ft | 170 kts | 187° |
| 2026-05-04 13:33 | 58.38055 | 24.15706 | 9985 ft | 164 kts | 188° |
| 2026-05-04 13:33 | 58.36927 | 24.15889 | 8751 ft | 161 kts | 188° |
| 2026-05-04 13:33 | 58.35813 | 24.16075 | 7513 ft | 160 kts | 188° |
| 2026-05-04 13:33 | 58.34721 | 24.16262 | 6439 ft | 157 kts | 188° |
| 2026-05-04 13:34 | 58.33650 | 24.16447 | 5583 ft | 162 kts | 188° |
| 2026-05-04 13:34 | 58.32452 | 24.16622 | 4711 ft | 183 kts | 186° |
| 2026-05-04 13:34 | 58.31114 | 24.16851 | 3838 ft | 202 kts | 183° |
| 2026-05-04 13:34 | 58.29652 | 24.17111 | 3218 ft | 213 kts | 182° |
| 2026-05-04 13:35 | 58.28208 | 24.17383 | 2995 ft | 203 kts | 182° |
| 2026-05-04 13:35 | 58.25459 | 24.17825 | 2483 ft | 190 kts | 187° |
| 2026-05-04 13:35 | 58.24197 | 24.17512 | 2243 ft | 181 kts | 201° |
| 2026-05-04 13:36 | 58.23023 | 24.16713 | 2001 ft | 177 kts | 212° |
| 2026-05-04 13:36 | 58.21996 | 24.15495 | 1769 ft | 170 kts | 222° |
| 2026-05-04 13:36 | 58.21187 | 24.14036 | 1562 ft | 151 kts | 232° |
| 2026-05-04 13:36 | 58.20544 | 24.12579 | 1373 ft | 134 kts | 233° |
| 2026-05-04 13:37 | 58.19930 | 24.11213 | 1186 ft | 145 kts | 233° |
| 2026-05-04 13:37 | 58.19317 | 24.09856 | 1002 ft | 128 kts | 233° |
| 2026-05-04 13:37 | 58.18739 | 24.08579 | 841 ft | 126 kts | 233° |
| 2026-05-04 13:37 | 58.18363 | 24.07731 | 727 ft | 126 kts | 232° |
| 2026-05-04 13:38 | 58.17609 | 24.06063 | 562 ft | 123 kts | 234° |
| 2026-05-04 13:38 | 58.17070 | 24.04870 | 559 ft | 116 kts | 234° |
| 2026-05-04 13:38 | 58.16548 | 24.03708 | 490 ft | 117 kts | 236° |
| 2026-05-04 13:38 | 58.16057 | 24.02637 | 351 ft | 97 kts | 236° |
| 2026-05-04 13:39 | 58.15641 | 24.01712 | 217 ft | 89 kts | 235° |
| 2026-05-04 13:39 | 58.15235 | 24.00821 | 95 ft | 91 kts | 232° |
| 2026-05-04 13:39 | 58.14875 | 23.99941 | 13 ft | 67 kts | 230° |
| 2026-05-04 13:39 | 58.14753 | 23.99706 | 14 ft | 1 kts | 128° |
| 2026-05-04 13:40 | 58.14819 | 23.99895 | 11 ft | 32 kts | 53° |
| 2026-05-04 13:40 | 58.14847 | 24.00192 | 12 ft | 10 kts | 86° |
| 2026-05-04 13:40 | 58.14855 | 24.00236 | 12 ft | 0 kts | 57° |